sensor_id;sensor_type;location;lat;lon;timestamp;pressure;altitude;pressure_sealevel;temperature;humidity
22000;BME280;11164;48.818;2.322;2022-12-26T00:01:07;100437.72;;;13.59;53.26
22000;BME280;11164;48.818;2.322;2022-12-26T00:03:33;100439.13;;;13.62;53.04
22000;BME280;11164;48.818;2.322;2022-12-26T00:05:58;100448.88;;;13.69;52.87
22000;BME280;11164;48.818;2.322;2022-12-26T00:08:23;100446.59;;;13.66;52.88
22000;BME280;11164;48.818;2.322;2022-12-26T00:10:49;100430.94;;;13.68;52.95
22000;BME280;11164;48.818;2.322;2022-12-26T00:13:14;100440.63;;;13.58;53.25
22000;BME280;11164;48.818;2.322;2022-12-26T00:15:40;100437.13;;;13.57;53.21
22000;BME280;11164;48.818;2.322;2022-12-26T00:18:05;100444.47;;;13.50;53.38
22000;BME280;11164;48.818;2.322;2022-12-26T00:20:30;100441.97;;;13.48;53.43
22000;BME280;11164;48.818;2.322;2022-12-26T00:22:56;100441.25;;;13.60;53.14
22000;BME280;11164;48.818;2.322;2022-12-26T00:25:21;100439.66;;;13.52;53.08
22000;BME280;11164;48.818;2.322;2022-12-26T00:27:46;100451.09;;;13.54;53.21
22000;BME280;11164;48.818;2.322;2022-12-26T00:30:12;100449.94;;;13.43;53.44
22000;BME280;11164;48.818;2.322;2022-12-26T00:32:37;100450.44;;;13.34;53.87
22000;BME280;11164;48.818;2.322;2022-12-26T00:35:02;100449.03;;;13.49;53.36
22000;BME280;11164;48.818;2.322;2022-12-26T00:37:28;100448.06;;;13.44;53.37
22000;BME280;11164;48.818;2.322;2022-12-26T00:39:53;100429.59;;;13.34;53.58
22000;BME280;11164;48.818;2.322;2022-12-26T00:42:18;100440.09;;;13.24;53.87
22000;BME280;11164;48.818;2.322;2022-12-26T00:44:44;100442.81;;;13.24;53.87
22000;BME280;11164;48.818;2.322;2022-12-26T00:47:09;100432.91;;;13.36;53.56
22000;BME280;11164;48.818;2.322;2022-12-26T00:49:34;100457.78;;;13.26;53.76
22000;BME280;11164;48.818;2.322;2022-12-26T00:52:00;100450.75;;;13.19;53.73
22000;BME280;11164;48.818;2.322;2022-12-26T00:54:25;100444.06;;;13.21;53.60
22000;BME280;11164;48.818;2.322;2022-12-26T00:56:50;100438.44;;;13.23;53.55
22000;BME280;11164;48.818;2.322;2022-12-26T00:59:16;100425.88;;;13.28;53.35
22000;BME280;11164;48.818;2.322;2022-12-26T01:01:41;100432.84;;;13.18;53.47
22000;BME280;11164;48.818;2.322;2022-12-26T01:04:06;100440.16;;;13.17;53.51
22000;BME280;11164;48.818;2.322;2022-12-26T01:06:33;100436.03;;;13.08;53.86
22000;BME280;11164;48.818;2.322;2022-12-26T01:08:58;100447.06;;;13.06;54.30
22000;BME280;11164;48.818;2.322;2022-12-26T01:11:23;100454.94;;;13.15;53.48
22000;BME280;11164;48.818;2.322;2022-12-26T01:14:13;100454.75;;;13.09;53.73
22000;BME280;11164;48.818;2.322;2022-12-26T01:16:39;100464.22;;;13.25;53.92
22000;BME280;11164;48.818;2.322;2022-12-26T01:19:05;100476.78;;;13.20;53.54
22000;BME280;11164;48.818;2.322;2022-12-26T01:21:31;100478.13;;;13.04;53.99
22000;BME280;11164;48.818;2.322;2022-12-26T01:23:57;100479.00;;;12.98;54.11
22000;BME280;11164;48.818;2.322;2022-12-26T01:26:22;100471.53;;;12.93;54.44
22000;BME280;11164;48.818;2.322;2022-12-26T01:28:48;100469.22;;;12.97;54.39
22000;BME280;11164;48.818;2.322;2022-12-26T01:31:14;100467.69;;;13.07;53.89
22000;BME280;11164;48.818;2.322;2022-12-26T01:33:39;100460.91;;;12.98;54.38
22000;BME280;11164;48.818;2.322;2022-12-26T01:36:05;100472.97;;;12.96;54.39
22000;BME280;11164;48.818;2.322;2022-12-26T01:38:30;100477.16;;;12.91;54.35
22000;BME280;11164;48.818;2.322;2022-12-26T01:40:56;100494.22;;;12.92;54.18
22000;BME280;11164;48.818;2.322;2022-12-26T01:46:41;100503.53;;;13.03;53.93
22000;BME280;11164;48.818;2.322;2022-12-26T01:49:25;100523.03;;;13.11;53.92
22000;BME280;11164;48.818;2.322;2022-12-26T01:51:58;100525.63;;;13.00;54.04
22000;BME280;11164;48.818;2.322;2022-12-26T01:54:29;100544.00;;;12.91;54.56
22000;BME280;11164;48.818;2.322;2022-12-26T01:56:57;100522.09;;;12.92;54.38
22000;BME280;11164;48.818;2.322;2022-12-26T01:59:26;100527.81;;;13.16;53.94
22000;BME280;11164;48.818;2.322;2022-12-26T02:01:53;100548.59;;;12.77;54.82
22000;BME280;11164;48.818;2.322;2022-12-26T02:04:27;100537.59;;;12.72;55.17
22000;BME280;11164;48.818;2.322;2022-12-26T02:07:12;100530.41;;;12.98;54.52
22000;BME280;11164;48.818;2.322;2022-12-26T02:09:37;100509.03;;;12.89;54.56
22000;BME280;11164;48.818;2.322;2022-12-26T02:12:13;100526.84;;;13.04;54.09
22000;BME280;11164;48.818;2.322;2022-12-26T02:14:40;100529.78;;;13.02;54.25
22000;BME280;11164;48.818;2.322;2022-12-26T02:17:06;100534.28;;;13.15;53.95
22000;BME280;11164;48.818;2.322;2022-12-26T02:38:46;100535.41;;;13.01;53.95
22000;BME280;11164;48.818;2.322;2022-12-26T02:41:31;100521.88;;;13.01;53.92
22000;BME280;11164;48.818;2.322;2022-12-26T02:47:10;100497.06;;;13.04;53.81
22000;BME280;11164;48.818;2.322;2022-12-26T02:49:57;100501.50;;;12.98;54.16
22000;BME280;11164;48.818;2.322;2022-12-26T02:56:31;100489.75;;;13.11;53.62
22000;BME280;11164;48.818;2.322;2022-12-26T02:59:25;100479.72;;;13.11;53.64
22000;BME280;11164;48.818;2.322;2022-12-26T03:02:37;100496.50;;;12.95;54.06
22000;BME280;11164;48.818;2.322;2022-12-26T03:05:30;100498.19;;;12.96;53.81
22000;BME280;11164;48.818;2.322;2022-12-26T03:08:30;100496.91;;;12.99;54.01
22000;BME280;11164;48.818;2.322;2022-12-26T03:11:16;100516.88;;;12.98;53.73
22000;BME280;11164;48.818;2.322;2022-12-26T03:14:30;100499.25;;;12.88;54.31
22000;BME280;11164;48.818;2.322;2022-12-26T03:17:05;100500.31;;;12.81;54.16
22000;BME280;11164;48.818;2.322;2022-12-26T03:19:52;100489.47;;;12.87;54.04
22000;BME280;11164;48.818;2.322;2022-12-26T03:22:29;100491.34;;;12.80;54.12
22000;BME280;11164;48.818;2.322;2022-12-26T03:24:57;100486.34;;;12.84;53.62
22000;BME280;11164;48.818;2.322;2022-12-26T03:27:43;100492.19;;;12.87;53.89
22000;BME280;11164;48.818;2.322;2022-12-26T03:30:08;100502.59;;;12.84;53.81
22000;BME280;11164;48.818;2.322;2022-12-26T03:32:55;100505.28;;;12.84;53.85
22000;BME280;11164;48.818;2.322;2022-12-26T03:35:22;100503.66;;;12.69;54.36
22000;BME280;11164;48.818;2.322;2022-12-26T03:37:55;100502.78;;;12.82;54.09
22000;BME280;11164;48.818;2.322;2022-12-26T03:43:27;100505.06;;;12.79;54.12
22000;BME280;11164;48.818;2.322;2022-12-26T03:49:23;100525.25;;;12.96;54.35
22000;BME280;11164;48.818;2.322;2022-12-26T03:52:15;100513.63;;;12.82;54.11
22000;BME280;11164;48.818;2.322;2022-12-26T03:55:17;100529.88;;;12.75;54.10
22000;BME280;11164;48.818;2.322;2022-12-26T04:01:18;100531.53;;;12.76;53.99
22000;BME280;11164;48.818;2.322;2022-12-26T04:04:06;100521.38;;;12.72;54.38
22000;BME280;11164;48.818;2.322;2022-12-26T04:10:04;100535.28;;;12.75;54.14
22000;BME280;11164;48.818;2.322;2022-12-26T04:12:51;100544.00;;;12.78;53.94
22000;BME280;11164;48.818;2.322;2022-12-26T04:15:43;100521.56;;;12.77;53.90
22000;BME280;11164;48.818;2.322;2022-12-26T04:18:44;100528.44;;;12.66;54.64
22000;BME280;11164;48.818;2.322;2022-12-26T04:21:41;100560.66;;;12.74;54.24
22000;BME280;11164;48.818;2.322;2022-12-26T04:24:31;100555.06;;;12.76;53.78
22000;BME280;11164;48.818;2.322;2022-12-26T04:27:18;100541.50;;;12.89;53.66
22000;BME280;11164;48.818;2.322;2022-12-26T04:30:04;100540.69;;;12.75;53.93
22000;BME280;11164;48.818;2.322;2022-12-26T04:32:49;100548.00;;;12.68;54.24
22000;BME280;11164;48.818;2.322;2022-12-26T04:35:46;100551.16;;;12.65;54.07
22000;BME280;11164;48.818;2.322;2022-12-26T04:38:40;100560.47;;;12.69;54.27
22000;BME280;11164;48.818;2.322;2022-12-26T04:41:26;100553.34;;;12.82;54.00
22000;BME280;11164;48.818;2.322;2022-12-26T04:44:12;100553.22;;;12.63;54.19
22000;BME280;11164;48.818;2.322;2022-12-26T04:46:44;100557.97;;;12.68;54.40
22000;BME280;11164;48.818;2.322;2022-12-26T04:49:11;100566.31;;;12.66;54.38
22000;BME280;11164;48.818;2.322;2022-12-26T04:51:57;100579.66;;;12.61;54.40
22000;BME280;11164;48.818;2.322;2022-12-26T04:54:23;100591.94;;;12.64;54.31
22000;BME280;11164;48.818;2.322;2022-12-26T04:56:49;100597.94;;;12.66;54.44
22000;BME280;11164;48.818;2.322;2022-12-26T04:59:15;100611.47;;;12.72;54.31
22000;BME280;11164;48.818;2.322;2022-12-26T05:01:41;100595.63;;;12.83;53.82
22000;BME280;11164;48.818;2.322;2022-12-26T05:04:25;100594.19;;;12.73;54.13
22000;BME280;11164;48.818;2.322;2022-12-26T05:07:20;100595.41;;;12.78;54.28
22000;BME280;11164;48.818;2.322;2022-12-26T05:10:07;100616.06;;;12.65;54.37
22000;BME280;11164;48.818;2.322;2022-12-26T05:12:34;100609.59;;;12.66;54.25
22000;BME280;11164;48.818;2.322;2022-12-26T05:14:59;100602.78;;;12.50;54.50
22000;BME280;11164;48.818;2.322;2022-12-26T05:17:25;100606.13;;;12.46;54.77
22000;BME280;11164;48.818;2.322;2022-12-26T05:20:11;100588.59;;;12.62;54.38
22000;BME280;11164;48.818;2.322;2022-12-26T05:22:56;100600.44;;;12.67;54.06
22000;BME280;11164;48.818;2.322;2022-12-26T05:25:42;100595.03;;;12.61;54.02
22000;BME280;11164;48.818;2.322;2022-12-26T05:28:27;100595.94;;;12.48;54.42
22000;BME280;11164;48.818;2.322;2022-12-26T05:33:34;100599.06;;;12.31;54.73
22000;BME280;11164;48.818;2.322;2022-12-26T05:36:20;100608.84;;;12.32;54.57
22000;BME280;11164;48.818;2.322;2022-12-26T05:38:47;100600.31;;;12.15;54.89
22000;BME280;11164;48.818;2.322;2022-12-26T05:41:13;100605.31;;;12.25;54.68
22000;BME280;11164;48.818;2.322;2022-12-26T05:43:39;100616.94;;;12.39;54.43
22000;BME280;11164;48.818;2.322;2022-12-26T05:46:04;100627.56;;;12.41;54.14
22000;BME280;11164;48.818;2.322;2022-12-26T05:48:30;100630.25;;;12.14;54.90
22000;BME280;11164;48.818;2.322;2022-12-26T05:50:59;100647.97;;;12.23;54.58
22000;BME280;11164;48.818;2.322;2022-12-26T05:53:25;100643.78;;;12.21;54.81
22000;BME280;11164;48.818;2.322;2022-12-26T05:55:51;100642.72;;;11.88;55.45
22000;BME280;11164;48.818;2.322;2022-12-26T05:58:16;100648.34;;;12.13;55.06
22000;BME280;11164;48.818;2.322;2022-12-26T06:00:42;100637.75;;;12.05;55.13
22000;BME280;11164;48.818;2.322;2022-12-26T06:03:07;100632.97;;;12.14;54.73
22000;BME280;11164;48.818;2.322;2022-12-26T06:05:32;100645.44;;;12.15;54.68
22000;BME280;11164;48.818;2.322;2022-12-26T06:07:58;100646.88;;;11.84;55.14
22000;BME280;11164;48.818;2.322;2022-12-26T06:10:23;100651.66;;;11.82;55.44
22000;BME280;11164;48.818;2.322;2022-12-26T06:12:51;100649.38;;;11.92;55.22
22000;BME280;11164;48.818;2.322;2022-12-26T06:15:16;100645.84;;;11.98;54.80
22000;BME280;11164;48.818;2.322;2022-12-26T06:17:42;100614.47;;;11.97;54.23
22000;BME280;11164;48.818;2.322;2022-12-26T06:20:07;100641.50;;;12.17;54.16
22000;BME280;11164;48.818;2.322;2022-12-26T06:22:33;100614.06;;;11.94;54.29
22000;BME280;11164;48.818;2.322;2022-12-26T06:24:58;100639.81;;;12.30;53.63
22000;BME280;11164;48.818;2.322;2022-12-26T06:27:23;100634.44;;;12.10;54.01
22000;BME280;11164;48.818;2.322;2022-12-26T06:29:49;100622.78;;;12.23;53.75
22000;BME280;11164;48.818;2.322;2022-12-26T06:32:14;100631.72;;;12.16;53.82
22000;BME280;11164;48.818;2.322;2022-12-26T06:34:39;100637.13;;;12.16;53.60
22000;BME280;11164;48.818;2.322;2022-12-26T06:37:05;100644.19;;;11.97;54.19
22000;BME280;11164;48.818;2.322;2022-12-26T06:39:30;100646.69;;;11.99;53.99
22000;BME280;11164;48.818;2.322;2022-12-26T06:41:55;100655.22;;;12.03;53.91
22000;BME280;11164;48.818;2.322;2022-12-26T06:44:21;100656.47;;;12.13;53.66
22000;BME280;11164;48.818;2.322;2022-12-26T06:46:46;100661.47;;;12.10;53.54
22000;BME280;11164;48.818;2.322;2022-12-26T06:49:11;100665.19;;;11.95;53.71
22000;BME280;11164;48.818;2.322;2022-12-26T06:51:37;100664.75;;;11.92;54.08
22000;BME280;11164;48.818;2.322;2022-12-26T06:54:02;100676.00;;;11.95;53.81
22000;BME280;11164;48.818;2.322;2022-12-26T06:56:29;100678.69;;;11.89;53.93
22000;BME280;11164;48.818;2.322;2022-12-26T06:59:02;100672.22;;;11.83;53.98
22000;BME280;11164;48.818;2.322;2022-12-26T07:01:30;100661.78;;;11.73;54.25
22000;BME280;11164;48.818;2.322;2022-12-26T07:03:56;100667.81;;;11.69;54.40
22000;BME280;11164;48.818;2.322;2022-12-26T07:06:24;100681.09;;;11.70;54.28
22000;BME280;11164;48.818;2.322;2022-12-26T07:08:52;100682.75;;;11.65;54.43
22000;BME280;11164;48.818;2.322;2022-12-26T07:11:21;100694.59;;;11.63;54.51
22000;BME280;11164;48.818;2.322;2022-12-26T07:13:47;100696.75;;;11.75;54.17
22000;BME280;11164;48.818;2.322;2022-12-26T07:16:12;100696.53;;;11.83;54.09
22000;BME280;11164;48.818;2.322;2022-12-26T07:18:38;100704.44;;;11.85;54.33
22000;BME280;11164;48.818;2.322;2022-12-26T07:21:08;100706.97;;;11.99;53.77
22000;BME280;11164;48.818;2.322;2022-12-26T07:23:34;100709.06;;;11.97;54.00
22000;BME280;11164;48.818;2.322;2022-12-26T07:25:59;100715.91;;;11.87;54.36
22000;BME280;11164;48.818;2.322;2022-12-26T07:28:25;100715.91;;;12.07;53.93
22000;BME280;11164;48.818;2.322;2022-12-26T07:30:51;100724.63;;;12.02;53.92
22000;BME280;11164;48.818;2.322;2022-12-26T07:33:16;100713.19;;;12.00;53.99
22000;BME280;11164;48.818;2.322;2022-12-26T07:35:42;100711.75;;;11.97;54.14
22000;BME280;11164;48.818;2.322;2022-12-26T07:38:08;100712.97;;;11.88;54.31
22000;BME280;11164;48.818;2.322;2022-12-26T07:40:33;100713.19;;;11.93;54.14
22000;BME280;11164;48.818;2.322;2022-12-26T07:42:59;100712.97;;;11.95;53.93
22000;BME280;11164;48.818;2.322;2022-12-26T07:45:24;100708.84;;;11.92;54.01
22000;BME280;11164;48.818;2.322;2022-12-26T07:47:53;100705.72;;;11.95;53.69
22000;BME280;11164;48.818;2.322;2022-12-26T07:50:19;100713.84;;;11.95;54.04
22000;BME280;11164;48.818;2.322;2022-12-26T07:52:44;100714.63;;;11.89;54.10
22000;BME280;11164;48.818;2.322;2022-12-26T07:55:09;100727.13;;;11.97;53.95
22000;BME280;11164;48.818;2.322;2022-12-26T07:57:34;100726.72;;;12.00;53.82
22000;BME280;11164;48.818;2.322;2022-12-26T08:00:00;100742.50;;;11.96;53.97
22000;BME280;11164;48.818;2.322;2022-12-26T08:02:25;100748.09;;;11.95;54.00
22000;BME280;11164;48.818;2.322;2022-12-26T08:04:50;100745.81;;;11.98;53.88
22000;BME280;11164;48.818;2.322;2022-12-26T08:07:16;100754.34;;;12.02;54.27
22000;BME280;11164;48.818;2.322;2022-12-26T08:09:41;100745.63;;;12.00;54.30
22000;BME280;11164;48.818;2.322;2022-12-26T08:12:08;100749.81;;;12.03;54.43
22000;BME280;11164;48.818;2.322;2022-12-26T08:14:36;100746.50;;;12.14;53.96
22000;BME280;11164;48.818;2.322;2022-12-26T08:17:01;100753.38;;;12.16;54.23
22000;BME280;11164;48.818;2.322;2022-12-26T08:19:27;100753.34;;;12.10;54.49
22000;BME280;11164;48.818;2.322;2022-12-26T08:21:52;100751.28;;;12.18;54.31
22000;BME280;11164;48.818;2.322;2022-12-26T08:24:18;100752.28;;;11.97;54.70
22000;BME280;11164;48.818;2.322;2022-12-26T08:26:44;100753.34;;;12.10;54.48
22000;BME280;11164;48.818;2.322;2022-12-26T08:29:10;100766.88;;;12.30;53.93
22000;BME280;11164;48.818;2.322;2022-12-26T08:31:36;100766.03;;;12.23;54.15
22000;BME280;11164;48.818;2.322;2022-12-26T08:34:01;100777.25;;;12.19;54.31
22000;BME280;11164;48.818;2.322;2022-12-26T08:36:26;100779.41;;;12.37;53.93
22000;BME280;11164;48.818;2.322;2022-12-26T08:38:52;100783.34;;;12.42;54.00
22000;BME280;11164;48.818;2.322;2022-12-26T08:41:18;100778.56;;;12.30;54.19
22000;BME280;11164;48.818;2.322;2022-12-26T08:43:47;100787.88;;;12.28;53.51
22000;BME280;11164;48.818;2.322;2022-12-26T08:46:13;100794.56;;;12.25;54.06
22000;BME280;11164;48.818;2.322;2022-12-26T08:48:39;100792.84;;;12.11;54.85
22000;BME280;11164;48.818;2.322;2022-12-26T08:51:08;100804.56;;;12.38;54.04
22000;BME280;11164;48.818;2.322;2022-12-26T08:53:34;100812.66;;;12.38;54.17
22000;BME280;11164;48.818;2.322;2022-12-26T08:56:02;100806.84;;;12.34;54.33
22000;BME280;11164;48.818;2.322;2022-12-26T08:58:27;100816.41;;;12.30;54.42
22000;BME280;11164;48.818;2.322;2022-12-26T09:00:53;100818.25;;;12.30;54.35
22000;BME280;11164;48.818;2.322;2022-12-26T09:03:19;100828.88;;;12.31;54.34
22000;BME280;11164;48.818;2.322;2022-12-26T09:05:44;100828.44;;;12.21;54.69
22000;BME280;11164;48.818;2.322;2022-12-26T09:08:10;100826.16;;;12.31;54.26
22000;BME280;11164;48.818;2.322;2022-12-26T09:10:35;100831.19;;;12.61;53.71
22000;BME280;11164;48.818;2.322;2022-12-26T09:13:01;100833.31;;;12.72;53.64
22000;BME280;11164;48.818;2.322;2022-12-26T09:15:26;100839.06;;;12.36;54.27
22000;BME280;11164;48.818;2.322;2022-12-26T09:17:52;100839.31;;;12.48;54.08
22000;BME280;11164;48.818;2.322;2022-12-26T09:20:17;100844.34;;;12.71;53.48
22000;BME280;11164;48.818;2.322;2022-12-26T09:22:42;100850.38;;;12.80;53.42
22000;BME280;11164;48.818;2.322;2022-12-26T09:25:18;100857.41;;;12.41;54.17
22000;BME280;11164;48.818;2.322;2022-12-26T09:27:45;100853.78;;;12.13;55.00
22000;BME280;11164;48.818;2.322;2022-12-26T09:30:11;100862.19;;;12.52;54.19
22000;BME280;11164;48.818;2.322;2022-12-26T09:32:37;100868.44;;;12.59;53.82
22000;BME280;11164;48.818;2.322;2022-12-26T09:35:02;100857.84;;;12.57;54.23
22000;BME280;11164;48.818;2.322;2022-12-26T09:37:28;100863.25;;;12.57;54.06
22000;BME280;11164;48.818;2.322;2022-12-26T09:39:53;100863.88;;;12.53;54.30
22000;BME280;11164;48.818;2.322;2022-12-26T09:43:08;100862.88;;;12.74;53.45
22000;BME280;11164;48.818;2.322;2022-12-26T09:45:38;100867.06;;;12.90;53.18
22000;BME280;11164;48.818;2.322;2022-12-26T09:48:16;100860.19;;;13.07;51.88
22000;BME280;11164;48.818;2.322;2022-12-26T09:50:48;100876.22;;;12.96;53.36
22000;BME280;11164;48.818;2.322;2022-12-26T09:53:18;100880.19;;;12.86;53.34
22000;BME280;11164;48.818;2.322;2022-12-26T09:55:54;100879.16;;;12.87;53.36
22000;BME280;11164;48.818;2.322;2022-12-26T09:58:30;100879.34;;;12.86;53.66
22000;BME280;11164;48.818;2.322;2022-12-26T10:01:13;100893.25;;;12.83;52.13
22000;BME280;11164;48.818;2.322;2022-12-26T10:03:44;100870.34;;;12.79;53.48
22000;BME280;11164;48.818;2.322;2022-12-26T10:08:56;100872.91;;;13.00;52.84
22000;BME280;11164;48.818;2.322;2022-12-26T10:22:06;100890.72;;;12.61;54.03
22000;BME280;11164;48.818;2.322;2022-12-26T10:24:37;100877.41;;;12.66;53.78
22000;BME280;11164;48.818;2.322;2022-12-26T10:27:12;100881.88;;;12.87;52.96
22000;BME280;11164;48.818;2.322;2022-12-26T10:29:49;100875.00;;;12.98;52.32
22000;BME280;11164;48.818;2.322;2022-12-26T10:32:21;100869.78;;;12.90;52.81
22000;BME280;11164;48.818;2.322;2022-12-26T10:34:49;100877.91;;;12.97;53.33
22000;BME280;11164;48.818;2.322;2022-12-26T10:37:37;100877.06;;;13.03;51.06
22000;BME280;11164;48.818;2.322;2022-12-26T10:40:26;100878.72;;;12.97;51.37
22000;BME280;11164;48.818;2.322;2022-12-26T10:42:56;100878.09;;;12.95;52.77
22000;BME280;11164;48.818;2.322;2022-12-26T10:45:34;100886.13;;;12.55;52.78
22000;BME280;11164;48.818;2.322;2022-12-26T10:48:02;100880.97;;;12.73;53.66
22000;BME280;11164;48.818;2.322;2022-12-26T10:50:30;100885.97;;;12.83;53.30
22000;BME280;11164;48.818;2.322;2022-12-26T10:52:57;100886.97;;;12.55;53.93
22000;BME280;11164;48.818;2.322;2022-12-26T10:55:28;100896.97;;;12.62;53.19
22000;BME280;11164;48.818;2.322;2022-12-26T10:57:54;100892.38;;;12.55;54.06
22000;BME280;11164;48.818;2.322;2022-12-26T11:00:23;100894.75;;;12.85;53.27
22000;BME280;11164;48.818;2.322;2022-12-26T11:05:36;100886.84;;;13.10;52.67
22000;BME280;11164;48.818;2.322;2022-12-26T11:08:21;100900.31;;;12.70;51.87
22000;BME280;11164;48.818;2.322;2022-12-26T11:13:26;100892.34;;;12.49;54.23
22000;BME280;11164;48.818;2.322;2022-12-26T11:15:52;100903.63;;;12.59;53.95
22000;BME280;11164;48.818;2.322;2022-12-26T11:18:38;100899.03;;;12.66;52.63
22000;BME280;11164;48.818;2.322;2022-12-26T11:21:16;100897.88;;;12.89;52.92
22000;BME280;11164;48.818;2.322;2022-12-26T11:23:44;100892.69;;;13.01;52.96
22000;BME280;11164;48.818;2.322;2022-12-26T11:26:22;100891.25;;;13.05;51.85
22000;BME280;11164;48.818;2.322;2022-12-26T11:31:29;100890.59;;;13.36;52.38
22000;BME280;11164;48.818;2.322;2022-12-26T11:33:57;100871.66;;;13.29;52.36
22000;BME280;11164;48.818;2.322;2022-12-26T11:36:25;100883.91;;;13.39;52.17
22000;BME280;11164;48.818;2.322;2022-12-26T11:39:01;100889.53;;;13.30;51.87
22000;BME280;11164;48.818;2.322;2022-12-26T11:46:38;100892.88;;;13.06;52.37
22000;BME280;11164;48.818;2.322;2022-12-26T11:49:05;100921.00;;;13.31;52.43
22000;BME280;11164;48.818;2.322;2022-12-26T11:51:38;100910.38;;;13.17;52.29
22000;BME280;11164;48.818;2.322;2022-12-26T11:56:48;100908.94;;;12.87;53.30
22000;BME280;11164;48.818;2.322;2022-12-26T11:59:23;100902.47;;;13.28;52.48
22000;BME280;11164;48.818;2.322;2022-12-26T12:02:13;100924.75;;;12.97;50.10
22000;BME280;11164;48.818;2.322;2022-12-26T12:04:39;100908.72;;;13.02;52.54
22000;BME280;11164;48.818;2.322;2022-12-26T12:07:16;100904.16;;;12.96;50.52
22000;BME280;11164;48.818;2.322;2022-12-26T12:10:09;100905.97;;;12.89;51.44
22000;BME280;11164;48.818;2.322;2022-12-26T12:18:32;100920.78;;;13.06;50.54
22000;BME280;11164;48.818;2.322;2022-12-26T12:29:19;100933.56;;;11.68;52.67
22000;BME280;11164;48.818;2.322;2022-12-26T12:42:42;100970.38;;;11.25;52.80
22000;BME280;11164;48.818;2.322;2022-12-26T12:45:28;100967.06;;;11.23;54.27
22000;BME280;11164;48.818;2.322;2022-12-26T12:56:25;100978.81;;;11.66;53.57
22000;BME280;11164;48.818;2.322;2022-12-26T13:01:59;100982.56;;;11.43;52.51
22000;BME280;11164;48.818;2.322;2022-12-26T13:04:31;100993.63;;;10.83;53.53
22000;BME280;11164;48.818;2.322;2022-12-26T13:07:02;101002.19;;;10.87;53.71
22000;BME280;11164;48.818;2.322;2022-12-26T13:09:34;101005.28;;;10.54;53.58
22000;BME280;11164;48.818;2.322;2022-12-26T13:12:07;101002.72;;;10.31;53.79
22000;BME280;11164;48.818;2.322;2022-12-26T13:14:55;101000.94;;;10.53;52.84
22000;BME280;11164;48.818;2.322;2022-12-26T13:17:31;101018.28;;;10.80;50.78
22000;BME280;11164;48.818;2.322;2022-12-26T13:20:17;101006.31;;;11.04;50.63
22000;BME280;11164;48.818;2.322;2022-12-26T13:22:47;101009.59;;;11.21;51.03
22000;BME280;11164;48.818;2.322;2022-12-26T13:25:39;101009.00;;;11.04;51.48
22000;BME280;11164;48.818;2.322;2022-12-26T13:28:12;101014.03;;;11.51;51.18
22000;BME280;11164;48.818;2.322;2022-12-26T13:30:41;101007.75;;;11.72;50.56
22000;BME280;11164;48.818;2.322;2022-12-26T13:33:11;101002.19;;;11.52;48.43
22000;BME280;11164;48.818;2.322;2022-12-26T13:35:54;101025.28;;;11.33;46.84
22000;BME280;11164;48.818;2.322;2022-12-26T13:38:21;101014.44;;;11.26;51.28
22000;BME280;11164;48.818;2.322;2022-12-26T13:43:22;101010.31;;;12.08;49.64
22000;BME280;11164;48.818;2.322;2022-12-26T13:46:34;101008.53;;;11.87;45.70
22000;BME280;11164;48.818;2.322;2022-12-26T13:49:00;101015.13;;;12.13;50.15
22000;BME280;11164;48.818;2.322;2022-12-26T13:51:42;101016.75;;;12.49;46.93
22000;BME280;11164;48.818;2.322;2022-12-26T13:54:10;101021.34;;;12.48;47.48
22000;BME280;11164;48.818;2.322;2022-12-26T14:13:32;101063.88;;;11.12;50.03
22000;BME280;11164;48.818;2.322;2022-12-26T14:21:24;101081.03;;;11.04;45.38
22000;BME280;11164;48.818;2.322;2022-12-26T14:29:08;101096.31;;;11.55;46.55
22000;BME280;11164;48.818;2.322;2022-12-26T14:34:54;101104.72;;;11.23;46.77
22000;BME280;11164;48.818;2.322;2022-12-26T14:38:30;101103.34;;;11.13;46.98
22000;BME280;11164;48.818;2.322;2022-12-26T14:43:22;101131.69;;;11.23;47.39
22000;BME280;11164;48.818;2.322;2022-12-26T14:45:50;101120.75;;;11.10;48.73
22000;BME280;11164;48.818;2.322;2022-12-26T15:11:37;101162.09;;;10.96;45.56
22000;BME280;11164;48.818;2.322;2022-12-26T15:30:46;101212.91;;;10.77;44.74
22000;BME280;11164;48.818;2.322;2022-12-26T15:33:34;101219.28;;;10.61;46.47
22000;BME280;11164;48.818;2.322;2022-12-26T15:36:06;101222.16;;;10.22;47.39
22000;BME280;11164;48.818;2.322;2022-12-26T15:38:50;101219.91;;;10.25;48.11
22000;BME280;11164;48.818;2.322;2022-12-26T15:49:46;101255.19;;;10.16;46.92
22000;BME280;11164;48.818;2.322;2022-12-26T15:52:24;101256.81;;;10.02;46.41
22000;BME280;11164;48.818;2.322;2022-12-26T15:57:49;101265.97;;;9.92;46.76
22000;BME280;11164;48.818;2.322;2022-12-26T16:00:20;101270.28;;;10.02;47.27
22000;BME280;11164;48.818;2.322;2022-12-26T16:05:52;101282.75;;;10.03;46.74
22000;BME280;11164;48.818;2.322;2022-12-26T16:08:33;101287.38;;;9.86;46.63
22000;BME280;11164;48.818;2.322;2022-12-26T16:11:21;101277.69;;;10.00;46.48
22000;BME280;11164;48.818;2.322;2022-12-26T16:13:52;101291.69;;;9.95;47.57
22000;BME280;11164;48.818;2.322;2022-12-26T16:16:34;101295.13;;;10.12;46.34
22000;BME280;11164;48.818;2.322;2022-12-26T16:19:17;101307.31;;;9.77;45.83
22000;BME280;11164;48.818;2.322;2022-12-26T16:21:51;101308.97;;;9.78;46.97
22000;BME280;11164;48.818;2.322;2022-12-26T16:24:38;101308.56;;;9.58;47.80
22000;BME280;11164;48.818;2.322;2022-12-26T16:27:06;101322.56;;;9.84;47.35
22000;BME280;11164;48.818;2.322;2022-12-26T16:29:36;101328.53;;;9.71;47.45
22000;BME280;11164;48.818;2.322;2022-12-26T16:32:05;101334.31;;;9.52;47.76
22000;BME280;11164;48.818;2.322;2022-12-26T16:34:34;101314.47;;;9.53;47.31
22000;BME280;11164;48.818;2.322;2022-12-26T16:37:01;101340.97;;;9.64;47.55